Time;durP1;ratioP1;P1;durP2;ratioP2;P2;SDS_P1;SDS_P2;PMS_P1;PMS_P2;Temp;Humidity;BMP_temperature;BMP_pressure;BME280_temperature;BME280_humidity;BME280_pressure;Samples;Min_cycle;Max_cycle;Signal;HPM_P1;HPM_P2
2022/03/01 00:02:25;;;;;;;27.27;14.15;;;-2.20;99.90;;;;;;5094815;28;20075;-87
2022/03/01 00:05:16;;;;;;;31.02;15.18;;;-2.10;99.90;;;;;;5093916;28;20066;-88
2022/03/01 00:08:06;;;;;;;28.92;14.00;;;-2.10;99.90;;;;;;5076672;28;20211;-87
2022/03/01 00:10:56;;;;;;;20.08;10.95;;;-1.90;99.90;;;;;;5093438;28;20450;-86
2022/03/01 00:13:43;;;;;;;23.17;12.55;;;-1.80;99.90;;;;;;5098620;28;20048;-87
2022/03/01 00:16:30;;;;;;;24.02;13.25;;;-1.70;99.90;;;;;;5112442;28;20077;-85
2022/03/01 00:19:23;;;;;;;24.55;12.93;;;-1.70;99.90;;;;;;5104521;28;20054;-88
2022/03/01 00:22:10;;;;;;;26.20;13.15;;;-1.60;99.90;;;;;;5077831;28;20044;-87
2022/03/01 00:25:00;;;;;;;22.88;11.85;;;-1.70;99.90;;;;;;5065891;28;20373;-87
2022/03/01 00:27:49;;;;;;;29.75;13.15;;;-1.70;99.90;;;;;;5094559;28;20119;-85
2022/03/01 00:30:38;;;;;;;22.98;12.75;;;-1.80;1.00;;;;;;5088324;28;20430;-88
2022/03/01 00:33:28;;;;;;;29.17;15.23;;;-1.80;99.90;;;;;;5085268;28;20150;-88
2022/03/01 00:36:22;;;;;;;29.83;15.55;;;-1.90;1.00;;;;;;5095752;28;20104;-87
2022/03/01 00:39:11;;;;;;;24.63;12.52;;;-2.00;99.90;;;;;;5092257;28;20062;-88
2022/03/01 00:41:59;;;;;;;23.50;12.60;;;-2.00;99.90;;;;;;5068851;28;20053;-88
2022/03/01 00:44:48;;;;;;;26.95;12.43;;;-1.90;99.90;;;;;;5083433;28;20123;-87
2022/03/01 00:47:36;;;;;;;23.33;12.70;;;-1.70;13.50;;;;;;5089988;28;20076;-89
2022/03/01 00:50:23;;;;;;;27.55;13.20;;;-1.60;1.00;;;;;;5071817;28;20093;-89
2022/03/01 00:53:11;;;;;;;33.00;13.48;;;-1.40;1.00;;;;;;5087518;28;20105;-88
2022/03/01 00:55:58;;;;;;;23.63;12.85;;;-1.40;1.00;;;;;;5093015;28;20062;-88
2022/03/01 00:58:48;;;;;;;27.20;13.15;;;-1.40;1.00;;;;;;5084579;28;20066;-89
2022/03/01 01:01:38;;;;;;;;;;;-1.40;1.00;;;;;;5093459;28;20094;-87
2022/03/01 01:04:27;;;;;;;26.58;12.63;;;-1.40;1.00;;;;;;5071234;28;19924;-87
2022/03/01 01:07:14;;;;;;;28.08;13.23;;;-1.40;1.00;;;;;;5089919;28;20097;-86
2022/03/01 01:10:08;;;;;;;24.90;13.20;;;-1.50;1.00;;;;;;5070490;28;20067;-87
2022/03/01 01:12:57;;;;;;;22.48;12.30;;;-1.60;1.00;;;;;;5077009;28;20127;-88
2022/03/01 01:15:48;;;;;;;23.73;13.18;;;-1.60;1.00;;;;;;5088643;28;20067;-86
2022/03/01 01:18:37;;;;;;;25.73;12.90;;;-1.60;1.00;;;;;;5061866;28;20059;-87
2022/03/01 01:22:39;;;;;;;24.88;12.52;;;-1.70;1.00;;;;;;5075193;28;20064;-87
2022/03/01 01:24:33;;;;;;;28.17;13.07;;;-1.70;1.00;;;;;;5093103;28;20079;-87
2022/03/01 01:27:21;;;;;;;25.05;12.10;;;-1.80;1.00;;;;;;5080736;28;20552;-88
2022/03/01 01:30:13;;;;;;;24.65;12.85;;;-1.80;1.00;;;;;;5083542;28;20089;-87
2022/03/01 01:33:00;;;;;;;25.37;13.40;;;-1.90;1.00;;;;;;5091006;28;20377;-88
2022/03/01 01:35:48;;;;;;;28.88;13.35;;;-2.00;5.60;;;;;;5087762;28;20055;-87
2022/03/01 01:38:36;;;;;;;23.40;13.27;;;-2.00;99.90;;;;;;5092690;28;20095;-88
2022/03/01 01:41:26;;;;;;;31.83;14.55;;;-2.10;99.90;;;;;;5078113;28;20130;-87
2022/03/01 01:44:13;;;;;;;27.17;15.02;;;-2.10;1.00;;;;;;5075548;28;20044;-89
2022/03/01 01:47:01;;;;;;;28.55;14.15;;;-2.30;1.00;;;;;;5089062;28;20040;-87
2022/03/01 01:49:48;;;;;;;31.15;15.25;;;-2.30;99.90;;;;;;5089149;28;20174;-87
2022/03/01 01:52:36;;;;;;;31.33;14.77;;;-2.40;1.00;;;;;;5078042;28;20040;-86
2022/03/01 01:55:27;;;;;;;25.27;13.88;;;-2.50;1.00;;;;;;5085259;28;20060;-87
2022/03/01 01:58:17;;;;;;;29.13;14.60;;;-2.50;1.00;;;;;;5086323;28;20032;-87
2022/03/01 02:01:05;;;;;;;29.67;14.02;;;-2.60;99.90;;;;;;5088894;28;20056;-85
2022/03/01 02:03:52;;;;;;;34.90;15.85;;;-2.70;1.00;;;;;;5077631;28;20101;-86
2022/03/01 02:07:10;;;;;;;29.73;15.13;;;-2.80;15.40;;;;;;5077183;28;20141;-87
2022/03/01 02:09:58;;;;;;;28.70;15.50;;;-3.00;1.00;;;;;;5088848;28;20053;-88
2022/03/01 02:12:48;;;;;;;29.60;14.85;;;-3.10;41.50;;;;;;5074643;28;20052;-87
2022/03/01 02:15:37;;;;;;;27.65;14.63;;;-3.10;98.00;;;;;;5092212;28;20122;-88
2022/03/01 02:18:25;;;;;;;30.02;14.80;;;-3.10;84.70;;;;;;5074376;28;20067;-88
2022/03/01 02:21:12;;;;;;;27.23;14.05;;;-3.30;99.90;;;;;;5085718;28;20062;-86
2022/03/01 02:24:02;;;;;;;33.28;14.23;;;-3.40;1.00;;;;;;5092050;28;20072;-86
2022/03/01 02:26:59;;;;;;;29.25;14.73;;;-3.40;63.30;;;;;;5087771;28;20585;-88
2022/03/01 02:29:49;;;;;;;33.88;16.02;;;-3.50;99.90;;;;;;5089250;28;20040;-85
2022/03/01 02:32:37;;;;;;;34.05;15.80;;;-3.60;1.00;;;;;;5087145;28;20064;-89
2022/03/01 02:35:29;;;;;;;29.67;14.85;;;-3.70;99.90;;;;;;5090979;28;20095;-87
2022/03/01 02:38:17;;;;;;;31.60;15.48;;;-3.70;1.00;;;;;;5086386;28;20396;-88
2022/03/01 02:41:07;;;;;;;32.60;15.35;;;-3.70;99.90;;;;;;5087477;28;20123;-87
2022/03/01 02:44:02;;;;;;;31.27;15.48;;;-3.70;1.00;;;;;;5082441;28;20063;-87
2022/03/01 02:46:49;;;;;;;30.38;15.43;;;-3.60;99.90;;;;;;5085327;28;20041;-87
2022/03/01 02:49:36;;;;;;;33.08;15.20;;;-3.60;99.90;;;;;;5091672;28;20055;-88
2022/03/01 02:52:24;;;;;;;32.45;15.60;;;-3.70;99.90;;;;;;5089233;28;20076;-88
2022/03/01 02:55:11;;;;;;;30.30;14.80;;;-3.70;99.90;;;;;;5075540;28;20094;-86
2022/03/01 02:57:58;;;;;;;36.00;16.02;;;-3.80;99.90;;;;;;5091817;28;20097;-89
2022/03/01 03:00:48;;;;;;;34.38;15.38;;;-3.80;1.00;;;;;;5083984;28;20071;-88
2022/03/01 03:03:39;;;;;;;37.63;14.73;;;-3.90;1.00;;;;;;5071014;28;20475;-88
2022/03/01 03:06:27;;;;;;;32.75;15.73;;;-4.00;99.90;;;;;;5085827;28;20037;-88
2022/03/01 03:09:18;;;;;;;26.38;14.98;;;-4.10;99.90;;;;;;5093460;28;20202;-87
2022/03/01 03:12:06;;;;;;;31.58;15.48;;;-4.20;99.90;;;;;;5071155;28;20040;-86
2022/03/01 03:14:56;;;;;;;33.22;15.63;;;-4.30;1.00;;;;;;5090745;28;20047;-88
2022/03/01 03:17:44;;;;;;;33.20;16.70;;;-4.40;99.90;;;;;;5084252;28;20044;-85
2022/03/01 03:20:34;;;;;;;29.85;15.10;;;-4.50;99.90;;;;;;5093236;28;20107;-87
2022/03/01 03:23:21;;;;;;;33.40;15.70;;;-4.50;32.50;;;;;;5096873;28;20040;-88
2022/03/01 03:26:13;;;;;;;34.47;16.10;;;-4.60;99.90;;;;;;5077758;28;20074;-88
2022/03/01 03:29:00;;;;;;;29.50;15.38;;;-4.60;99.90;;;;;;5093502;28;20048;-88
2022/03/01 03:31:54;;;;;;;34.05;16.23;;;-4.60;99.90;;;;;;5091707;28;20086;-85
2022/03/01 03:34:41;;;;;;;32.88;15.75;;;-4.70;99.90;;;;;;5096308;28;20404;-88
2022/03/01 03:37:31;;;;;;;36.40;15.63;;;-4.70;99.90;;;;;;5084960;28;20048;-87
2022/03/01 03:40:18;;;;;;;30.02;15.90;;;-4.70;99.90;;;;;;5081243;28;20418;-88
2022/03/01 03:43:05;;;;;;;30.05;15.23;;;-4.70;99.90;;;;;;5077028;28;20039;-87
2022/03/01 03:45:53;;;;;;;37.25;15.73;;;-4.70;99.90;;;;;;5093087;28;20147;-87
2022/03/01 03:48:40;;;;;;;36.83;17.02;;;-4.70;99.90;;;;;;5091027;28;20049;-89
2022/03/01 03:51:27;;;;;;;32.45;16.20;;;-4.60;99.90;;;;;;5078728;28;20488;-87
2022/03/01 03:54:14;;;;;;;36.20;16.13;;;-4.70;99.90;;;;;;5091488;28;20426;-89
2022/03/01 03:57:08;;;;;;;34.53;16.38;;;-4.70;99.90;;;;;;5070676;28;20050;-88
2022/03/01 03:59:58;;;;;;;33.00;17.30;;;-4.70;99.90;;;;;;5092263;28;20059;-87
2022/03/01 04:02:47;;;;;;;32.85;16.20;;;-4.70;99.90;;;;;;5085010;28;20048;-87
2022/03/01 04:05:35;;;;;;;39.08;16.67;;;-4.70;99.90;;;;;;5094643;28;20100;-82
2022/03/01 04:08:22;;;;;;;36.95;17.08;;;-4.60;99.90;;;;;;5076787;28;20115;-87
2022/03/01 04:11:10;;;;;;;32.85;16.40;;;-4.60;99.90;;;;;;5087101;28;20064;-87
2022/03/01 04:14:04;;;;;;;31.80;15.38;;;-4.60;99.90;;;;;;5080071;28;20094;-87
2022/03/01 04:16:53;;;;;;;35.05;15.73;;;-4.50;99.90;;;;;;5090453;28;20336;-88
2022/03/01 04:19:45;;;;;;;31.52;15.13;;;-4.60;99.90;;;;;;5088605;28;20055;-87
2022/03/01 04:22:33;;;;;;;34.42;17.73;;;-4.60;99.90;;;;;;5069990;28;20158;-87
2022/03/01 04:25:24;;;;;;;35.47;16.02;;;-4.60;99.90;;;;;;5089214;28;20066;-87
2022/03/01 04:28:12;;;;;;;35.22;16.55;;;-4.50;99.90;;;;;;5085475;28;20068;-88
2022/03/01 04:31:03;;;;;;;31.02;15.38;;;-4.40;99.90;;;;;;5076592;28;20413;-87
2022/03/01 04:33:58;;;;;;;31.65;14.95;;;-4.50;99.90;;;;;;5078195;28;20118;-86
2022/03/01 04:36:53;;;;;;;36.00;16.70;;;-4.60;99.90;;;;;;5088436;28;20040;-87
2022/03/01 04:39:40;;;;;;;35.40;17.02;;;-4.60;99.90;;;;;;5084320;28;20048;-86
2022/03/01 04:42:30;;;;;;;40.10;16.48;;;-4.50;99.90;;;;;;5077635;28;20098;-85
2022/03/01 04:45:18;;;;;;;38.28;16.42;;;-4.50;99.90;;;;;;5091336;28;20040;-88
2022/03/01 04:48:05;;;;;;;35.92;17.27;;;-4.40;99.90;;;;;;5093279;28;20047;-87
2022/03/01 04:50:55;;;;;;;38.70;16.42;;;-4.40;99.90;;;;;;5092499;28;20052;-86
2022/03/01 04:53:42;;;;;;;33.33;17.00;;;-4.50;99.90;;;;;;5080176;28;20201;-87
2022/03/01 04:56:32;;;;;;;32.92;15.68;;;-4.50;99.90;;;;;;5080966;28;20055;-87
2022/03/01 04:59:21;;;;;;;35.45;16.50;;;-4.60;99.90;;;;;;5075518;28;20596;-86
2022/03/01 05:02:10;;;;;;;34.22;16.27;;;-4.60;99.90;;;;;;5063400;28;20359;-87
2022/03/01 05:04:58;;;;;;;38.35;16.75;;;-4.70;99.90;;;;;;5083143;28;20131;-87
2022/03/01 05:07:48;;;;;;;44.33;17.33;;;-4.70;99.90;;;;;;5083465;28;20101;-86
2022/03/01 05:10:35;;;;;;;37.85;16.35;;;-4.70;99.90;;;;;;5093666;28;20098;-88
2022/03/01 05:13:28;;;;;;;33.88;16.25;;;-4.70;99.90;;;;;;5080948;28;20167;-87
2022/03/01 05:16:16;;;;;;;33.97;16.48;;;-4.70;99.90;;;;;;5092228;28;20449;-88
2022/03/01 05:19:06;;;;;;;38.05;17.25;;;-4.70;99.90;;;;;;5092576;28;20052;-87
2022/03/01 05:21:59;;;;;;;33.70;16.77;;;-4.70;99.90;;;;;;5078972;28;20047;-88
2022/03/01 05:24:49;;;;;;;45.65;17.58;;;-4.80;99.90;;;;;;5093300;28;20524;-88
2022/03/01 05:27:38;;;;;;;32.97;17.42;;;-4.90;99.90;;;;;;5101004;28;20051;-86
2022/03/01 05:30:28;;;;;;;37.72;17.33;;;-5.00;99.90;;;;;;5069710;28;20051;-86
2022/03/01 05:33:15;;;;;;;34.67;16.90;;;-5.10;99.90;;;;;;5090307;28;20040;-85
2022/03/01 05:36:03;;;;;;;39.08;18.42;;;-5.20;1.00;;;;;;5079247;28;20633;-87
2022/03/01 05:38:50;;;;;;;42.90;18.48;;;-5.30;1.00;;;;;;5085515;28;20040;-86
2022/03/01 05:41:37;;;;;;;42.78;18.27;;;-5.30;1.00;;;;;;5094371;28;20067;-88
2022/03/01 05:44:24;;;;;;;37.97;16.77;;;-5.40;1.00;;;;;;5087507;28;20048;-89
2022/03/01 05:47:12;;;;;;;36.67;17.05;;;-5.50;1.00;;;;;;5090530;28;20039;-89
2022/03/01 05:50:04;;;;;;;36.97;17.52;;;-5.50;99.90;;;;;;5091495;28;20088;-90
2022/03/01 05:52:52;;;;;;;37.42;16.55;;;-5.40;99.90;;;;;;5094543;28;20422;-86
2022/03/01 05:55:50;;;;;;;41.00;18.83;;;-5.40;99.90;;;;;;5100594;28;20044;-88
2022/03/01 05:58:40;;;;;;;41.95;17.88;;;-5.40;99.90;;;;;;5092705;28;21151;-88
2022/03/01 06:01:30;;;;;;;42.13;17.35;;;-5.50;99.90;;;;;;5091455;28;20101;-90
2022/03/01 06:04:18;;;;;;;42.95;19.42;;;-5.50;99.90;;;;;;5077338;28;20056;-84
2022/03/01 06:07:06;;;;;;;40.78;18.60;;;-5.50;99.90;;;;;;5081831;28;20083;-89
2022/03/01 06:09:53;;;;;;;41.28;18.33;;;-5.50;99.90;;;;;;5092255;28;20048;-85
2022/03/01 06:12:41;;;;;;;38.85;18.15;;;-5.50;99.90;;;;;;5094113;28;20056;-92
2022/03/01 06:15:35;;;;;;;42.80;20.63;;;-5.60;99.90;;;;;;5092005;28;20052;-88
2022/03/01 06:18:22;;;;;;;42.45;18.90;;;-5.70;99.90;;;;;;5085349;28;20071;-85
2022/03/01 06:21:10;;;;;;;35.80;18.00;;;-5.60;99.90;;;;;;5077686;28;20086;-89
2022/03/01 06:23:57;;;;;;;41.95;16.75;;;-5.60;99.90;;;;;;5091915;28;20225;-87
2022/03/01 06:26:46;;;;;;;37.70;18.13;;;-5.60;99.90;;;;;;5092245;28;20044;-87
2022/03/01 06:29:34;;;;;;;37.03;18.10;;;-5.40;99.90;;;;;;5083876;28;20105;-85
2022/03/01 06:32:22;;;;;;;38.95;18.23;;;-5.40;99.90;;;;;;5080363;28;20040;-88
2022/03/01 06:35:09;;;;;;;40.42;18.77;;;-5.30;99.90;;;;;;5081916;28;20136;-87
2022/03/01 06:38:03;;;;;;;39.70;18.20;;;-5.20;99.90;;;;;;5082325;28;20150;-86
2022/03/01 06:40:56;;;;;;;36.28;18.00;;;-5.20;99.90;;;;;;5090336;28;20463;-89
2022/03/01 06:43:45;;;;;;;38.75;17.80;;;-5.20;99.90;;;;;;5072795;28;20123;-86
2022/03/01 06:46:33;;;;;;;43.20;17.88;;;-5.10;99.90;;;;;;5088300;28;20366;-86
2022/03/01 06:49:21;;;;;;;36.58;18.50;;;-5.10;99.90;;;;;;5090229;28;20048;-86
2022/03/01 06:52:08;;;;;;;35.25;17.73;;;-4.80;99.90;;;;;;5081260;28;20078;-86
2022/03/01 06:54:55;;;;;;;43.55;18.15;;;-4.30;99.90;;;;;;5099583;28;20066;-87
2022/03/01 06:57:43;;;;;;;35.45;17.58;;;-3.50;99.90;;;;;;5084644;28;20097;-88
2022/03/01 07:00:33;;;;;;;30.20;16.00;;;-2.70;99.90;;;;;;5085347;28;20055;-88
2022/03/01 07:03:20;;;;;;;43.75;19.85;;;-2.10;99.90;;;;;;5085572;28;20066;-87
2022/03/01 07:06:09;;;;;;;55.15;22.70;;;-1.70;99.90;;;;;;5095135;28;20056;-87
2022/03/01 07:08:58;;;;;;;55.83;23.90;;;-1.30;99.90;;;;;;5097917;28;20359;-89
2022/03/01 07:11:48;;;;;;;48.65;21.38;;;-0.90;99.90;;;;;;5077715;28;20048;-88
2022/03/01 07:19:11;;;;;;;38.97;16.10;;;-0.60;99.90;;;;;;5091782;28;20032;-87
2022/03/01 07:22:34;;;;;;;30.00;14.75;;;-0.80;99.90;;;;;;4962152;28;20035;-87
2022/03/01 07:26:32;;;;;;;;;;;;;;;;;;;;;
2022/03/01 07:42:20;;;;;;;28.98;15.00;;;0.70;99.80;;;;;;5033410;28;20044;-86
2022/03/01 07:45:08;;;;;;;27.73;13.80;;;1.10;97.50;;;;;;5037185;28;20029;-83
2022/03/01 07:47:57;;;;;;;38.13;16.52;;;1.50;94.30;;;;;;5042259;28;20096;-85
2022/03/01 07:50:47;;;;;;;29.63;15.15;;;1.90;92.20;;;;;;5049711;28;20201;-83
2022/03/01 07:53:41;;;;;;;29.30;13.95;;;2.20;90.90;;;;;;5045358;28;20061;-82
2022/03/01 07:56:28;;;;;;;25.50;13.48;;;2.20;87.80;;;;;;5079036;28;20040;-83
2022/03/01 07:59:15;;;;;;;22.60;13.43;;;2.00;87.70;;;;;;5080487;28;20056;-83
2022/03/01 08:02:08;;;;;;;27.88;14.65;;;1.30;90.60;;;;;;5110768;28;20048;-86
2022/03/01 08:04:57;;;;;;;27.83;14.73;;;1.10;91.50;;;;;;5113319;28;20036;-84
2022/03/01 08:08:05;;;;;;;29.15;14.35;;;1.10;92.70;;;;;;5088013;28;20025;-86
2022/03/01 08:13:37;;;;;;;30.38;15.52;;;1.00;94.30;;;;;;6071826;22;20048;-86
2022/03/01 08:16:36;;;;;;;30.63;14.23;;;1.40;92.00;;;;;;5091800;28;20170;-83
2022/03/01 08:19:25;;;;;;;29.88;14.98;;;2.00;90.30;;;;;;5092696;28;20059;-81
2022/03/01 08:22:18;;;;;;;27.70;14.98;;;2.20;87.60;;;;;;5083147;28;20052;-83
2022/03/01 08:25:13;;;;;;;23.00;13.63;;;2.40;86.90;;;;;;5085724;28;20466;-82
2022/03/01 08:28:16;;;;;;;23.40;13.60;;;2.80;83.30;;;;;;5089611;28;20036;-83
2022/03/01 08:31:14;;;;;;;23.98;13.45;;;3.40;82.40;;;;;;5089340;28;20032;-84
2022/03/01 08:34:02;;;;;;;;;;;4.00;76.70;;;;;;5095208;28;20457;-82
2022/03/01 08:36:52;;;;;;;22.20;12.73;;;4.60;75.60;;;;;;5083096;28;20026;-83
2022/03/01 08:39:42;;;;;;;23.45;14.23;;;5.00;73.10;;;;;;5090647;28;20048;-82
2022/03/01 08:42:35;;;;;;;23.38;13.07;;;5.70;68.90;;;;;;5090925;28;20350;-84
2022/03/01 08:45:27;;;;;;;23.90;13.73;;;6.60;63.50;;;;;;5092369;28;20039;-80
2022/03/01 08:48:23;;;;;;;24.75;12.65;;;6.50;61.60;;;;;;5090958;28;20040;-81
2022/03/01 08:51:12;;;;;;;23.75;13.35;;;5.60;62.70;;;;;;5087380;28;20055;-80
2022/03/01 08:54:02;;;;;;;25.25;12.90;;;4.90;64.50;;;;;;5081775;28;20146;-81
2022/03/01 08:56:50;;;;;;;23.13;12.52;;;4.80;65.80;;;;;;5093945;28;20098;-83
2022/03/01 08:59:40;;;;;;;22.17;13.07;;;4.80;66.20;;;;;;5083322;28;20044;-82
2022/03/01 09:02:29;;;;;;;21.52;12.93;;;5.00;64.20;;;;;;5092532;28;20048;-82
2022/03/01 09:05:18;;;;;;;20.40;12.05;;;4.70;63.20;;;;;;5081184;28;20196;-82
2022/03/01 09:08:05;;;;;;;28.65;12.88;;;4.60;65.40;;;;;;5093768;28;20040;-82
2022/03/01 09:10:55;;;;;;;21.70;12.82;;;4.60;65.50;;;;;;5081803;28;20040;-82
2022/03/01 09:13:42;;;;;;;23.35;12.65;;;4.70;65.70;;;;;;5090815;28;20048;-81
2022/03/01 09:16:29;;;;;;;23.65;12.63;;;5.10;64.60;;;;;;5093618;28;20040;-83
2022/03/01 09:19:17;;;;;;;22.63;12.82;;;5.30;64.00;;;;;;5086298;28;20351;-80
2022/03/01 09:22:07;;;;;;;22.00;12.50;;;5.60;63.20;;;;;;5086299;28;20471;-82
2022/03/01 09:24:58;;;;;;;20.92;11.93;;;6.20;61.80;;;;;;5095886;28;20134;-83
2022/03/01 09:27:49;;;;;;;21.90;11.73;;;7.40;58.20;;;;;;5100017;28;20055;-82
2022/03/01 09:30:55;;;;;;;19.23;11.98;;;8.00;52.90;;;;;;5102391;28;20044;-82
2022/03/01 09:33:48;;;;;;;18.80;10.98;;;8.40;51.60;;;;;;5095255;28;20085;-85
2022/03/01 09:36:40;;;;;;;17.20;10.95;;;8.60;50.20;;;;;;5105006;28;20046;-85
2022/03/01 09:39:30;;;;;;;17.58;11.20;;;8.90;48.50;;;;;;5095136;28;20118;-84
2022/03/01 09:42:44;;;;;;;22.52;11.73;;;8.70;48.50;;;;;;5111416;28;20059;-84
2022/03/01 09:45:55;;;;;;;16.85;10.40;;;8.50;48.60;;;;;;5109044;28;20661;-85
2022/03/01 09:49:36;;;;;;;16.77;10.85;;;9.10;46.40;;;;;;5106338;28;20068;-85
2022/03/01 09:56:20;;;;;;;19.23;10.60;;;9.60;44.10;;;;;;5106798;28;20028;-85
2022/03/01 09:59:07;;;;;;;16.00;10.52;;;10.10;45.30;;;;;;5097279;28;20131;-84
2022/03/01 10:01:56;;;;;;;15.45;9.68;;;10.80;44.50;;;;;;5097670;28;20081;-86
2022/03/01 10:04:57;;;;;;;15.90;10.25;;;11.30;42.40;;;;;;5113598;28;20036;-83
2022/03/01 10:07:49;;;;;;;17.80;10.55;;;10.50;42.40;;;;;;5113553;28;20066;-84
2022/03/01 10:13:42;;;;;;;15.65;9.90;;;10.20;43.70;;;;;;6032497;22;20041;-81
2022/03/01 11:20:01;;;;;;;15.05;9.40;;;17.10;27.80;;;;;;5504605;22;21072;-85
2022/03/01 11:23:15;;;;;;;11.70;8.65;;;16.90;28.50;;;;;;5097677;28;20050;-87
2022/03/01 11:26:12;;;;;;;;;;;16.70;28.70;;;;;;5086320;28;20052;-87
2022/03/01 11:53:54;;;;;;;;;;;;;;;;;;;;;
2022/03/01 11:57:36;;;;;;;;;;;;;;;;;;;;;
2022/03/01 12:00:58;;;;;;;11.15;6.95;;;18.50;22.80;;;;;;4999935;28;20042;-83
2022/03/01 12:04:28;;;;;;;;;;;;;;;;;;;;;
2022/03/01 12:08:30;;;;;;;11.00;7.13;;;18.20;21.90;;;;;;4911960;29;20060;-90
2022/03/01 12:11:40;;;;;;;11.25;7.30;;;18.00;25.00;;;;;;4918189;29;20123;-89
2022/03/01 12:15:16;;;;;;;;;;;;;;;;;;;;;
2022/03/01 13:53:56;;;;;;;;;;;;;;;;;;;;;
2022/03/01 15:09:21;;;;;;;;;;;;;;;;;;;;;
2022/03/01 15:24:03;;;;;;;;;;;;;;;;;;;;;
2022/03/01 15:31:10;;;;;;;;;;;;;;;;;;;;;
2022/03/01 15:47:28;;;;;;;;;;;;;;;;;;;;;
2022/03/01 15:51:23;;;;;;;;;;;;;;;;;;;;;
2022/03/01 15:54:52;;;;;;;12.70;7.22;;;13.00;27.20;;;;;;5982984;23;20022;-92
2022/03/01 15:58:13;;;;;;;;;;;;;;;;;;;;;
2022/03/01 16:06:35;;;;;;;;;;;;;;;;;;;;;
2022/03/01 16:13:13;;;;;;;13.10;7.10;;;9.90;31.40;;;;;;6090048;23;20424;-90
2022/03/01 16:16:09;;;;;;;12.95;7.50;;;8.90;32.70;;;;;;6120844;23;20041;-91
2022/03/01 16:19:17;;;;;;;12.23;7.78;;;8.50;33.90;;;;;;6122811;23;20025;-91
2022/03/01 17:08:47;;;;;;;12.57;7.85;;;4.00;46.70;;;;;;6025918;23;20091;-93
2022/03/01 17:11:47;;;;;;;14.40;8.48;;;3.90;46.60;;;;;;6083629;23;20459;-91
2022/03/01 17:14:41;;;;;;;20.70;9.05;;;3.80;47.50;;;;;;6250343;23;20028;-91
2022/03/01 17:18:02;;;;;;;;;;;;;;;;;;;;;
2022/03/01 17:21:33;;;;;;;17.55;9.23;;;3.70;48.50;;;;;;6131755;23;20026;-90
2022/03/01 17:24:36;;;;;;;14.52;8.95;;;3.70;48.70;;;;;;6063372;23;20028;-91
2022/03/01 17:27:58;;;;;;;17.75;10.07;;;3.60;48.70;;;;;;6005637;23;20024;-92
2022/03/01 17:31:55;;;;;;;;;;;;;;;;;;;;;
2022/03/01 17:35:32;;;;;;;18.35;9.57;;;3.50;49.50;;;;;;5970159;24;20052;-90
2022/03/01 17:40:01;;;;;;;16.98;10.07;;;3.40;49.80;;;;;;6043643;23;20056;-91
2022/03/01 17:42:54;;;;;;;21.60;11.55;;;3.30;50.50;;;;;;6047597;23;20025;-91
2022/03/01 17:45:46;;;;;;;20.73;11.90;;;3.20;50.80;;;;;;6148743;23;20143;-90
2022/03/01 17:48:45;;;;;;;;;;;;;;;;;;;;;
2022/03/01 17:51:53;;;;;;;21.27;10.93;;;3.00;50.60;;;;;;6161747;23;20032;-89
2022/03/01 17:55:10;;;;;;;20.50;11.52;;;2.90;50.90;;;;;;6174015;23;20039;-91
2022/03/01 17:58:01;;;;;;;17.42;10.00;;;2.70;51.50;;;;;;6251547;22;20024;-90
2022/03/01 18:01:12;;;;;;;19.10;10.23;;;2.50;52.30;;;;;;6249308;23;20020;-89
2022/03/01 18:04:21;;;;;;;21.17;10.68;;;2.30;52.10;;;;;;6234798;23;20066;-89
2022/03/01 18:07:59;;;;;;;19.98;10.93;;;2.20;52.40;;;;;;6250162;23;20028;-91
2022/03/01 18:11:55;;;;;;;;;;;;;;;;;;;;;
2022/03/01 18:15:03;;;;;;;;;;;;;;;;;;;;;
2022/03/01 18:18:09;;;;;;;20.02;10.45;;;2.00;54.50;;;;;;6247804;23;20071;-88
2022/03/01 18:20:57;;;;;;;20.45;10.75;;;1.90;54.10;;;;;;6246427;23;20348;-89
2022/03/01 18:23:50;;;;;;;20.80;10.25;;;1.90;54.40;;;;;;6246646;23;20048;-91
2022/03/01 18:26:46;;;;;;;19.20;11.25;;;1.90;54.20;;;;;;6230505;22;20028;-90
2022/03/01 18:30:28;;;;;;;;;;;;;;;;;;;;;
2022/03/01 18:34:17;;;;;;;;;;;;;;;;;;;;;
2022/03/01 18:37:34;;;;;;;20.77;11.60;;;1.60;54.90;;;;;;6163792;23;20033;-91
2022/03/01 18:40:57;;;;;;;23.45;12.85;;;1.40;55.90;;;;;;6142831;23;20048;-92
2022/03/01 18:44:24;;;;;;;22.53;13.27;;;1.20;57.00;;;;;;6148470;23;20025;-91
2022/03/01 18:48:23;;;;;;;;;;;;;;;;;;;;;
2022/03/01 18:52:14;;;;;;;;;;;;;;;;;;;;;
2022/03/01 18:55:08;;;;;;;19.20;11.98;;;0.60;59.20;;;;;;6067190;23;20030;-90
2022/03/01 18:58:56;;;;;;;25.98;12.30;;;0.60;58.50;;;;;;6107992;23;20081;-89
2022/03/01 19:06:17;;;;;;;37.42;19.40;;;0.50;60.80;;;;;;6024700;23;20047;-84
2022/03/01 19:09:11;;;;;;;38.17;19.08;;;0.60;61.90;;;;;;6031627;23;20020;-86
2022/03/01 19:12:23;;;;;;;37.33;18.45;;;0.60;61.60;;;;;;6129630;23;20013;-87
2022/03/01 19:15:13;;;;;;;39.05;18.70;;;0.60;61.40;;;;;;6147717;23;20052;-89
2022/03/01 19:18:01;;;;;;;33.58;17.17;;;0.50;61.00;;;;;;6210511;22;20030;-90
2022/03/01 19:20:53;;;;;;;39.25;18.98;;;0.40;61.20;;;;;;6245805;22;20012;-90
2022/03/01 19:23:48;;;;;;;36.75;18.02;;;0.30;61.80;;;;;;6265851;23;20089;-91
2022/03/01 19:26:36;;;;;;;35.15;18.70;;;0.20;62.10;;;;;;6280035;22;20028;-89
2022/03/01 19:29:25;;;;;;;32.75;17.20;;;0.30;62.60;;;;;;6277095;22;20096;-89
2022/03/01 19:32:18;;;;;;;34.72;18.17;;;0.20;63.60;;;;;;6270051;22;20060;-88
2022/03/01 19:35:14;;;;;;;;;;;0.20;63.70;;;;;;6277209;22;20028;-91
2022/03/01 19:38:18;;;;;;;46.03;19.50;;;0.20;62.80;;;;;;6148475;23;19946;-88
2022/03/01 19:41:09;;;;;;;33.88;18.65;;;0.20;64.20;;;;;;6148530;23;20037;-89
2022/03/01 19:44:26;;;;;;;38.30;18.88;;;0.10;64.90;;;;;;6261352;23;20016;-87
2022/03/01 19:47:16;;;;;;;37.20;19.73;;;0.10;66.00;;;;;;6280691;22;20028;-89
2022/03/01 19:50:05;;;;;;;43.92;19.17;;;0.00;65.10;;;;;;6280450;22;20103;-88
2022/03/01 19:58:41;;;;;;;32.13;17.58;;;0.10;65.80;;;;;;6187447;22;20237;-84
2022/03/01 20:09:56;;;;;;;28.40;14.35;;;-0.10;66.50;;;;;;6191370;23;20016;-88
2022/03/01 20:12:49;;;;;;;24.23;13.93;;;-0.20;67.10;;;;;;6139589;23;20037;-89
2022/03/01 20:56:32;;;;;;;37.38;17.65;;;-1.10;80.10;;;;;;6246835;22;20358;-89
2022/03/01 21:00:05;;;;;;;38.00;17.65;;;-1.10;79.70;;;;;;6258070;22;20116;-89
2022/03/01 21:21:00;;;;;;;33.67;16.65;;;-1.30;76.70;;;;;;6133215;23;20020;-91
2022/03/01 21:46:05;;;;;;;37.38;17.50;;;-1.60;85.10;;;;;;6072394;23;20007;-90
2022/03/01 21:49:22;;;;;;;39.22;19.10;;;-1.70;86.40;;;;;;6043440;23;20046;-86
2022/03/01 21:52:49;;;;;;;36.63;18.73;;;-1.70;86.10;;;;;;6002041;23;20058;-88
